Ballingry, United Kingdom
Current Conditions -  °F | °C
As of 8:20 AM on Tuesday 21 Oct 2014 (Local Time) from EGPH Reporting Station
Few Clouds Few Clouds  
Wind Chill: 39°   Ceiling: Unl
Heat Index: 46°   Visibility: 6mi
Dew Point: 39°   Wind: 20mph
Humidity: 76%   Direction: 260°W
Pressure: 29.21"   Gusts: NA
Location:  56.16°N, 3.33°W
Report Text: EGPH 210720Z 26017KT 9999 FEW045 08/04 Q0989
Loading
Personal Weather Stations






























Interactive Weather Map
Tropical Storm Tracking
New forecast layout! Learn more

10-Day Weather Forecast

Advertisements
Track Severe Weather on mobile